createdAt,value
2022-11-19T00:02:11.868Z,3.63
2022-11-19T00:04:44.605Z,4.23
2022-11-19T00:07:13.879Z,5.60
2022-11-19T00:09:43.865Z,9.10
2022-11-19T00:12:30.807Z,9.10
2022-11-19T00:14:58.711Z,8.60
2022-11-19T00:17:26.660Z,8.20
2022-11-19T00:19:54.567Z,8.40
2022-11-19T00:22:23.911Z,8.47
2022-11-19T00:24:51.758Z,7.57
2022-11-19T00:27:24.469Z,7.70
2022-11-19T00:29:52.452Z,6.83
2022-11-19T00:32:22.570Z,6.17
2022-11-19T00:34:50.488Z,5.07
2022-11-19T00:37:18.405Z,6.07
2022-11-19T00:39:47.641Z,4.40
2022-11-19T00:42:15.765Z,4.80
2022-11-19T00:44:48.749Z,4.33
2022-11-19T00:47:19.776Z,5.27
2022-11-19T00:49:47.694Z,5.60
2022-11-19T00:52:15.621Z,5.87
2022-11-19T00:54:45.490Z,5.90
2022-11-19T00:57:15.204Z,6.30
2022-11-19T00:59:43.146Z,6.40
2022-11-19T01:02:11.331Z,6.10
2022-11-19T01:04:42.118Z,6.30
2022-11-19T01:07:10.423Z,6.50
2022-11-19T01:09:38.363Z,6.37
2022-11-19T01:12:06.701Z,6.33
2022-11-19T01:14:36.068Z,6.83
2022-11-19T01:17:04.011Z,6.73
2022-11-19T01:19:32.034Z,7.97
2022-11-19T01:22:03.261Z,7.77
2022-11-19T01:24:34.163Z,8.47
2022-11-19T01:27:04.130Z,7.97
2022-11-19T01:29:32.045Z,7.90
2022-11-19T01:32:04.313Z,7.47
2022-11-19T01:34:32.302Z,7.67
2022-11-19T01:37:00.290Z,8.07
2022-11-19T01:39:28.767Z,7.57
2022-11-19T01:41:56.722Z,7.53
2022-11-19T01:45:04.090Z,8.07
2022-11-19T01:47:34.066Z,6.67
2022-11-19T01:50:06.245Z,7.77
2022-11-19T01:52:34.249Z,7.70
2022-11-19T01:55:02.840Z,8.13
2022-11-19T01:57:30.819Z,7.20
2022-11-19T01:59:58.745Z,7.50
2022-11-19T02:02:26.767Z,7.20
2022-11-19T02:05:00.166Z,7.37
2022-11-19T02:07:31.438Z,7.47
2022-11-19T02:10:03.852Z,7.90
2022-11-19T02:12:43.115Z,7.13
2022-11-19T02:15:27.196Z,8.80
2022-11-19T02:18:08.309Z,8.73
2022-11-19T02:20:47.408Z,8.00
2022-11-19T02:23:46.519Z,9.20
2022-11-19T02:26:58.152Z,9.27
2022-11-19T02:29:55.594Z,8.80
2022-11-19T02:32:33.983Z,9.03
2022-11-19T02:35:09.660Z,9.17
2022-11-19T02:37:44.134Z,8.77
2022-11-19T02:40:17.816Z,10.20
2022-11-19T02:42:53.203Z,8.60
2022-11-19T02:45:25.709Z,8.60
2022-11-19T02:47:57.224Z,7.97
2022-11-19T02:50:29.095Z,7.90
2022-11-19T02:52:59.156Z,7.80
2022-11-19T02:55:29.197Z,7.73
2022-11-19T02:58:01.983Z,8.20
2022-11-19T03:00:56.578Z,6.90
2022-11-19T03:03:44.302Z,6.67
2022-11-19T03:06:15.752Z,7.10
2022-11-19T03:08:44.314Z,7.23
2022-11-19T03:11:20.391Z,6.90
2022-11-19T03:14:14.412Z,6.93
2022-11-19T03:16:54.305Z,7.57
2022-11-19T03:19:36.210Z,6.70
2022-11-19T03:22:09.825Z,7.00
2022-11-19T03:24:41.420Z,7.30
2022-11-19T03:27:16.294Z,6.47
2022-11-19T03:29:48.026Z,6.30
2022-11-19T03:32:20.432Z,5.97
2022-11-19T03:34:56.502Z,5.63
2022-11-19T03:37:26.247Z,5.10
2022-11-19T03:39:57.525Z,5.10
2022-11-19T03:42:28.635Z,5.13
2022-11-19T03:45:12.604Z,5.20
2022-11-19T03:47:44.314Z,4.40
2022-11-19T03:50:19.930Z,4.23
2022-11-19T03:52:48.037Z,3.90
2022-11-19T03:55:16.297Z,4.03
2022-11-19T03:57:45.145Z,4.50
2022-11-19T04:00:14.053Z,4.20
2022-11-19T04:02:43.436Z,3.97
2022-11-19T04:05:11.393Z,3.80
2022-11-19T04:07:39.446Z,4.20
2022-11-19T04:10:08.194Z,4.47
2022-11-19T04:12:36.129Z,4.70
2022-11-19T04:15:04.062Z,4.80
2022-11-19T04:17:32.289Z,5.17
2022-11-19T04:20:01.578Z,5.70
2022-11-19T04:22:29.803Z,5.67
2022-11-19T04:24:57.960Z,6.47
2022-11-19T04:27:28.555Z,5.97
2022-11-19T04:29:56.449Z,6.87
2022-11-19T04:32:24.550Z,6.33
2022-11-19T04:34:52.498Z,6.50
2022-11-19T04:37:21.905Z,6.50
2022-11-19T04:39:49.818Z,6.37
2022-11-19T04:42:20.851Z,6.90
2022-11-19T04:44:48.842Z,7.10
2022-11-19T04:47:16.951Z,6.50
2022-11-19T04:49:44.921Z,6.53
2022-11-19T04:52:12.965Z,6.10
2022-11-19T04:54:42.294Z,6.90
2022-11-19T04:57:13.300Z,6.37
2022-11-19T04:59:41.238Z,6.50
2022-11-19T05:02:10.878Z,6.17
2022-11-19T05:04:41.565Z,6.50
2022-11-19T05:07:12.156Z,5.80
2022-11-19T05:09:40.138Z,6.30
2022-11-19T05:12:09.745Z,6.00
2022-11-19T05:14:38.390Z,6.33
2022-11-19T05:17:11.001Z,6.90
2022-11-19T05:19:43.780Z,6.53
2022-11-19T05:22:15.791Z,6.23
2022-11-19T05:24:46.537Z,7.20
2022-11-19T05:27:16.044Z,6.93
2022-11-19T05:29:43.986Z,6.70
2022-11-19T05:32:11.958Z,6.60
2022-11-19T05:34:39.972Z,6.47
2022-11-19T05:37:09.793Z,5.73
2022-11-19T05:39:40.774Z,5.87
2022-11-19T05:42:08.839Z,6.27
2022-11-19T05:44:38.138Z,5.50
2022-11-19T05:47:06.139Z,4.93
2022-11-19T05:49:34.064Z,4.97
2022-11-19T05:52:01.928Z,5.03
2022-11-19T05:54:29.923Z,4.30
2022-11-19T05:56:58.053Z,4.33
2022-11-19T05:59:26.005Z,4.50
2022-11-19T06:01:56.987Z,4.47
2022-11-19T06:04:29.947Z,4.70
2022-11-19T06:06:57.869Z,4.77
2022-11-19T06:09:25.772Z,4.90
2022-11-19T06:11:53.722Z,5.53
2022-11-19T06:14:25.546Z,5.57
2022-11-19T06:16:58.625Z,5.43
2022-11-19T06:19:26.685Z,5.87
2022-11-19T06:21:54.861Z,6.20
2022-11-19T06:24:23.416Z,6.03
2022-11-19T06:26:51.462Z,5.40
2022-11-19T06:29:21.824Z,5.97
2022-11-19T06:31:50.088Z,6.00
2022-11-19T06:34:19.442Z,5.73
2022-11-19T06:36:50.878Z,7.00
2022-11-19T06:39:21.354Z,5.97
2022-11-19T06:41:49.611Z,6.57
2022-11-19T06:44:17.725Z,6.60
2022-11-19T06:46:45.728Z,6.87
2022-11-19T06:49:20.170Z,7.00
2022-11-19T06:51:49.843Z,7.57
2022-11-19T06:54:18.686Z,7.73
2022-11-19T06:56:46.630Z,7.50
2022-11-19T06:59:14.748Z,8.03
2022-11-19T07:01:42.836Z,8.53
2022-11-19T07:04:11.762Z,8.70
2022-11-19T07:06:39.714Z,8.30
2022-11-19T07:09:15.445Z,8.50
2022-11-19T07:11:43.396Z,9.37
2022-11-19T07:14:11.498Z,8.30
2022-11-19T07:16:39.497Z,8.57
2022-11-19T07:19:10.213Z,8.07
2022-11-19T07:21:38.453Z,8.33
2022-11-19T07:24:10.570Z,8.97
2022-11-19T07:26:40.055Z,9.40
2022-11-19T07:29:11.420Z,9.90
2022-11-19T07:31:39.384Z,9.97
2022-11-19T07:34:11.918Z,9.57
2022-11-19T07:36:39.922Z,9.60
2022-11-19T07:39:08.002Z,9.90
2022-11-19T07:41:53.260Z,10.63
2022-11-19T07:44:22.546Z,10.70
2022-11-19T07:46:50.869Z,11.63
2022-11-19T07:49:22.588Z,10.83
2022-11-19T07:51:59.332Z,11.00
2022-11-19T07:54:27.325Z,10.73
2022-11-19T07:56:58.217Z,11.53
2022-11-19T07:59:30.257Z,12.53
2022-11-19T08:01:59.947Z,11.17
2022-11-19T08:04:28.900Z,10.80
2022-11-19T08:06:58.856Z,10.80
2022-11-19T08:09:31.806Z,11.20
2022-11-19T08:11:59.801Z,10.77
2022-11-19T08:14:28.958Z,10.73
2022-11-19T08:17:15.793Z,11.20
2022-11-19T08:19:43.705Z,10.80
2022-11-19T08:22:12.060Z,10.90
2022-11-19T08:24:40.503Z,11.07
2022-11-19T08:27:08.462Z,11.10
2022-11-19T08:29:36.569Z,10.27
2022-11-19T08:32:06.083Z,9.93
2022-11-19T08:34:34.289Z,10.03
2022-11-19T08:37:02.269Z,10.33
2022-11-19T08:39:30.705Z,9.37
2022-11-19T08:42:16.171Z,9.70
2022-11-19T08:44:46.105Z,10.27
2022-11-19T08:47:15.480Z,9.97
2022-11-19T08:49:43.511Z,9.73
2022-11-19T08:52:11.735Z,8.67
2022-11-19T08:54:39.910Z,8.03
2022-11-19T08:57:07.950Z,8.17
2022-11-19T08:59:36.157Z,7.93
2022-11-19T09:02:04.178Z,8.03
2022-11-19T09:04:33.681Z,7.07
2022-11-19T09:07:02.710Z,7.10
2022-11-19T09:09:30.732Z,6.70
2022-11-19T09:11:58.699Z,9.20
2022-11-19T09:14:26.803Z,7.47
2022-11-19T09:16:55.046Z,6.47
2022-11-19T09:19:23.023Z,7.13
2022-11-19T09:21:52.332Z,7.40
2022-11-19T09:24:23.264Z,7.67
2022-11-19T09:26:52.956Z,7.47
2022-11-19T09:29:22.114Z,7.30
2022-11-19T09:31:49.991Z,6.77
2022-11-19T09:34:20.627Z,6.87
2022-11-19T09:36:48.813Z,7.30
2022-11-19T09:39:20.522Z,6.57
2022-11-19T09:41:53.641Z,5.87
2022-11-19T09:44:39.521Z,5.50
2022-11-19T09:47:20.087Z,5.27
2022-11-19T09:49:54.232Z,5.40
2022-11-19T09:52:27.575Z,5.60
2022-11-19T09:54:58.658Z,5.17
2022-11-19T09:57:33.000Z,5.97
2022-11-19T10:00:02.720Z,5.87
2022-11-19T10:02:30.767Z,5.50
2022-11-19T10:05:00.257Z,5.77
2022-11-19T10:07:42.258Z,5.33
2022-11-19T10:10:29.779Z,5.90
2022-11-19T10:13:17.491Z,6.40
2022-11-19T10:16:03.163Z,6.03
2022-11-19T10:18:41.941Z,6.17
2022-11-19T10:21:15.531Z,5.70
2022-11-19T10:23:50.576Z,5.90
2022-11-19T10:26:24.778Z,5.83
2022-11-19T10:28:57.106Z,6.10
2022-11-19T10:31:38.050Z,5.90
2022-11-19T10:34:27.452Z,6.47
2022-11-19T10:37:00.925Z,6.50
2022-11-19T10:39:34.016Z,6.00
2022-11-19T10:42:12.164Z,7.00
2022-11-19T10:44:43.127Z,6.53
2022-11-19T10:47:18.111Z,7.03
2022-11-19T10:49:46.283Z,6.60
2022-11-19T10:52:29.406Z,6.03
2022-11-19T10:55:02.688Z,6.30
2022-11-19T10:57:34.091Z,6.90
2022-11-19T11:00:02.637Z,7.83
2022-11-19T11:02:38.785Z,8.83
2022-11-19T11:05:10.755Z,7.70
2022-11-19T11:07:57.119Z,7.60
2022-11-19T11:10:35.870Z,7.40
2022-11-19T11:13:46.913Z,7.00
2022-11-19T11:16:18.336Z,7.88
2022-11-19T11:18:47.688Z,7.17
2022-11-19T11:21:37.003Z,7.10
2022-11-19T11:24:06.777Z,9.15
2022-11-19T11:26:38.057Z,8.10
2022-11-19T11:29:26.247Z,8.00
2022-11-19T11:31:54.609Z,8.50
2022-11-19T11:34:44.083Z,9.70
2022-11-19T11:37:13.080Z,8.20
2022-11-19T11:39:44.200Z,8.90
2022-11-19T11:42:18.901Z,9.27
2022-11-19T11:44:54.547Z,9.50
2022-11-19T11:47:25.824Z,9.20
2022-11-19T11:50:04.293Z,10.20
2022-11-19T11:52:37.473Z,10.47
2022-11-19T11:55:07.710Z,10.00
2022-11-19T11:57:37.697Z,9.47
2022-11-19T12:00:30.068Z,11.18
2022-11-19T12:03:02.113Z,10.50
2022-11-19T12:05:39.441Z,13.18
2022-11-19T12:08:14.346Z,11.63
2022-11-19T12:10:47.001Z,12.50
2022-11-19T12:13:46.752Z,13.13
2022-11-19T12:16:23.570Z,12.40
2022-11-19T12:19:07.406Z,10.90
2022-11-19T12:21:44.788Z,11.50
2022-11-19T12:24:32.605Z,11.93
2022-11-19T12:27:13.943Z,12.00
2022-11-19T12:29:48.874Z,12.13
2022-11-19T12:32:31.725Z,11.70
2022-11-19T12:35:23.953Z,15.43
2022-11-19T12:38:27.128Z,12.10
2022-11-19T12:41:03.643Z,11.40
2022-11-19T12:43:52.538Z,11.67
2022-11-19T12:46:29.537Z,12.50
2022-11-19T12:49:22.027Z,11.17
2022-11-19T12:51:58.869Z,10.73
2022-11-19T12:54:41.395Z,11.97
2022-11-19T12:57:23.791Z,11.53
2022-11-19T13:00:11.072Z,10.97
2022-11-19T13:02:47.905Z,11.07
2022-11-19T13:05:20.763Z,11.40
2022-11-19T13:07:53.989Z,10.80
2022-11-19T13:10:25.918Z,12.20
2022-11-19T13:12:58.107Z,11.43
2022-11-19T13:15:31.047Z,11.53
2022-11-19T13:18:03.024Z,11.10
2022-11-19T13:20:48.040Z,12.37
2022-11-19T13:23:22.097Z,13.10
2022-11-19T13:25:58.084Z,12.37
2022-11-19T13:28:33.783Z,12.20
2022-11-19T13:31:08.030Z,12.57
2022-11-19T13:33:44.773Z,13.93
2022-11-19T13:36:20.648Z,12.87
2022-11-19T13:38:53.605Z,12.47
2022-11-19T13:41:25.546Z,13.27
2022-11-19T13:44:14.120Z,13.67
2022-11-19T13:46:45.905Z,13.50
2022-11-19T13:49:18.797Z,13.23
2022-11-19T13:51:54.319Z,13.27
2022-11-19T13:54:27.172Z,13.30
2022-11-19T13:56:58.271Z,13.07
2022-11-19T13:59:39.037Z,14.13
2022-11-19T14:02:49.282Z,14.77
2022-11-19T14:05:43.912Z,15.30
2022-11-19T14:08:28.586Z,14.17
2022-11-19T14:11:10.679Z,17.60
2022-11-19T14:13:51.850Z,15.73
2022-11-19T14:16:47.930Z,15.20
2022-11-19T14:19:35.875Z,15.70
2022-11-19T14:22:49.374Z,15.67
2022-11-19T14:26:00.691Z,16.10
2022-11-19T14:28:48.303Z,15.30
2022-11-19T14:31:16.868Z,14.33
2022-11-19T14:34:01.360Z,15.23
2022-11-19T14:36:45.681Z,15.63
2022-11-19T14:39:23.138Z,15.47
2022-11-19T14:42:13.750Z,15.90
2022-11-19T14:44:42.345Z,16.30
2022-11-19T14:47:33.899Z,16.57
2022-11-19T14:50:05.854Z,17.07
2022-11-19T14:52:37.781Z,16.57
2022-11-19T14:55:22.377Z,17.47
2022-11-19T14:58:01.632Z,17.93
2022-11-19T15:00:33.067Z,18.10
2022-11-19T15:03:03.446Z,18.13
2022-11-19T15:05:34.270Z,18.10
2022-11-19T15:08:30.930Z,19.20
2022-11-19T15:11:08.302Z,17.47
2022-11-19T15:13:39.196Z,18.40
2022-11-19T15:16:11.126Z,18.53
2022-11-19T15:19:24.211Z,19.13
2022-11-19T15:22:31.198Z,19.00
2022-11-19T15:25:18.324Z,17.73
2022-11-19T15:28:03.438Z,20.23
2022-11-19T15:30:51.624Z,19.93
2022-11-19T15:33:47.672Z,20.27
2022-11-19T15:36:28.376Z,20.07
2022-11-19T15:39:01.700Z,20.40
2022-11-19T15:41:33.186Z,20.17
2022-11-19T15:44:05.376Z,20.23
2022-11-19T15:46:41.944Z,20.13
2022-11-19T15:49:15.565Z,20.33
2022-11-19T15:51:57.978Z,20.70
2022-11-19T15:54:29.814Z,20.90
2022-11-19T15:57:00.308Z,22.37
2022-11-19T15:59:29.627Z,23.03
2022-11-19T16:02:01.336Z,23.73
2022-11-19T16:04:35.121Z,25.93
2022-11-19T16:07:04.234Z,23.10
2022-11-19T16:09:32.547Z,24.67
2022-11-19T16:12:17.949Z,23.83
2022-11-19T16:15:08.620Z,26.37
2022-11-19T16:17:44.618Z,26.57
2022-11-19T16:20:22.964Z,25.87
2022-11-19T16:22:56.201Z,25.43
2022-11-19T16:25:32.582Z,24.53
2022-11-19T16:28:04.666Z,23.67
2022-11-19T16:30:40.384Z,24.40
2022-11-19T16:33:14.917Z,23.73
2022-11-19T16:35:46.041Z,23.10
2022-11-19T16:38:22.319Z,23.50
2022-11-19T16:41:07.786Z,23.47
2022-11-19T16:43:36.928Z,23.23
2022-11-19T16:46:07.305Z,22.90
2022-11-19T16:48:56.715Z,23.80
2022-11-19T16:51:51.513Z,24.17
2022-11-19T16:54:46.037Z,25.03
2022-11-19T16:57:16.634Z,25.13
2022-11-19T16:59:49.418Z,25.07
2022-11-19T17:02:20.233Z,28.30
2022-11-19T17:04:53.382Z,24.10
2022-11-19T17:07:27.292Z,30.50
2022-11-19T17:10:11.761Z,32.03
2022-11-19T17:12:51.169Z,26.10
2022-11-19T17:15:38.466Z,28.40
2022-11-19T17:18:16.990Z,28.63
2022-11-19T17:20:52.512Z,26.07
2022-11-19T17:23:22.553Z,26.10
2022-11-19T17:25:53.876Z,24.07
2022-11-19T17:28:26.316Z,24.57
2022-11-19T17:30:56.298Z,25.00
2022-11-19T17:33:25.037Z,25.03
2022-11-19T17:35:54.476Z,25.10
2022-11-19T17:38:25.742Z,24.13
2022-11-19T17:40:56.630Z,26.10
2022-11-19T17:43:44.073Z,31.10
2022-11-19T17:46:12.369Z,27.67
2022-11-19T17:48:42.636Z,25.50
2022-11-19T17:51:14.365Z,24.40
2022-11-19T17:53:42.430Z,23.70
2022-11-19T17:56:19.057Z,24.17
2022-11-19T17:58:47.643Z,25.23
2022-11-19T18:01:18.814Z,20.97
2022-11-19T18:03:52.689Z,22.10
2022-11-19T18:06:25.557Z,20.63
2022-11-19T18:08:54.001Z,21.27
2022-11-19T18:11:24.711Z,21.67
2022-11-19T18:13:54.877Z,22.37
2022-11-19T18:16:24.865Z,22.23
2022-11-19T18:18:53.533Z,22.40
2022-11-19T18:21:24.566Z,22.57
2022-11-19T18:23:53.206Z,21.97
2022-11-19T18:26:23.749Z,22.37
2022-11-19T18:28:52.047Z,22.90
2022-11-19T18:31:21.925Z,22.07
2022-11-19T18:33:51.368Z,21.40
2022-11-19T18:36:20.398Z,21.63
2022-11-19T18:38:50.154Z,22.10
2022-11-19T18:41:20.048Z,21.33
2022-11-19T18:44:06.345Z,23.30
2022-11-19T18:46:34.627Z,21.47
2022-11-19T18:49:04.776Z,21.77
2022-11-19T18:51:33.228Z,22.03
2022-11-19T18:54:02.986Z,21.70
2022-11-19T18:56:31.285Z,19.80
2022-11-19T18:59:04.513Z,21.83
2022-11-19T19:01:33.383Z,21.67
2022-11-19T19:04:02.037Z,21.70
2022-11-19T19:06:30.622Z,21.17
2022-11-19T19:08:58.693Z,21.27
2022-11-19T19:11:45.459Z,21.33
2022-11-19T19:14:13.483Z,21.80
2022-11-19T19:16:41.378Z,22.17
2022-11-19T19:19:11.227Z,23.00
2022-11-19T19:21:39.197Z,21.83
2022-11-19T19:24:07.914Z,22.20
2022-11-19T19:26:37.178Z,22.30
2022-11-19T19:29:05.854Z,23.43
2022-11-19T19:31:34.655Z,22.67
2022-11-19T19:34:02.655Z,23.87
2022-11-19T19:36:30.886Z,22.73
2022-11-19T19:38:58.907Z,22.87
2022-11-19T19:41:28.458Z,21.53
2022-11-19T19:44:00.977Z,21.93
2022-11-19T19:46:31.227Z,22.53
2022-11-19T19:48:59.363Z,20.43
2022-11-19T19:51:29.902Z,22.13
2022-11-19T19:53:58.125Z,22.47
2022-11-19T19:56:28.369Z,23.63
2022-11-19T19:58:58.473Z,23.40
2022-11-19T20:01:28.350Z,22.40
2022-11-19T20:04:01.991Z,22.40
2022-11-19T20:06:30.430Z,23.73
2022-11-19T20:08:58.908Z,22.00
2022-11-19T20:11:28.111Z,21.27
2022-11-19T20:13:58.567Z,23.23
2022-11-19T20:16:28.487Z,21.80
2022-11-19T20:18:57.597Z,22.33
2022-11-19T20:21:27.493Z,23.53
2022-11-19T20:23:56.063Z,24.13
2022-11-19T20:26:26.633Z,23.63
2022-11-19T20:28:57.911Z,23.33
2022-11-19T20:31:27.211Z,22.93
2022-11-19T20:33:57.298Z,21.70
2022-11-19T20:36:26.322Z,22.30
2022-11-19T20:38:54.938Z,22.80
2022-11-19T20:41:37.358Z,22.57
2022-11-19T20:44:24.529Z,22.57
2022-11-19T20:46:54.072Z,23.47
2022-11-19T20:49:24.512Z,22.13
2022-11-19T20:51:53.721Z,21.67
2022-11-19T20:54:22.385Z,22.50
2022-11-19T20:56:52.832Z,24.00
2022-11-19T20:59:22.872Z,22.43
2022-11-19T21:01:51.941Z,22.67
2022-11-19T21:04:20.924Z,21.67
2022-11-19T21:06:50.723Z,24.07
2022-11-19T21:09:19.656Z,24.03
2022-11-19T21:11:48.627Z,22.67
2022-11-19T21:14:16.744Z,23.93
2022-11-19T21:16:46.284Z,22.60
2022-11-19T21:19:15.629Z,23.33
2022-11-19T21:21:44.215Z,22.40
2022-11-19T21:24:12.654Z,24.07
2022-11-19T21:26:41.253Z,22.70
2022-11-19T21:29:09.272Z,22.77
2022-11-19T21:31:42.037Z,22.97
2022-11-19T21:34:16.014Z,23.77
2022-11-19T21:36:45.068Z,23.00
2022-11-19T21:39:14.649Z,24.27
2022-11-19T21:41:42.850Z,22.67
2022-11-19T21:44:12.471Z,22.50
2022-11-19T21:47:11.440Z,22.83
2022-11-19T21:49:43.868Z,22.93
2022-11-19T21:52:11.810Z,22.73
2022-11-19T21:54:39.786Z,22.83
2022-11-19T21:57:07.760Z,22.63
2022-11-19T21:59:37.035Z,22.10
2022-11-19T22:02:05.570Z,22.00
2022-11-19T22:04:33.762Z,22.47
2022-11-19T22:07:03.376Z,22.50
2022-11-19T22:09:31.529Z,21.97
2022-11-19T22:12:02.615Z,24.57
2022-11-19T22:14:30.599Z,22.80
2022-11-19T22:16:58.538Z,22.83
2022-11-19T22:19:26.557Z,23.27
2022-11-19T22:21:54.796Z,23.60
2022-11-19T22:24:24.120Z,23.53
2022-11-19T22:26:52.624Z,23.43
2022-11-19T22:29:20.970Z,23.23
2022-11-19T22:31:49.341Z,23.33
2022-11-19T22:34:17.270Z,23.40
2022-11-19T22:36:45.348Z,22.70
2022-11-19T22:39:13.697Z,23.27
2022-11-19T22:41:43.042Z,24.07
2022-11-19T22:44:10.997Z,23.87
2022-11-19T22:46:38.924Z,23.67
2022-11-19T22:49:11.279Z,23.77
2022-11-19T22:51:41.307Z,23.87
2022-11-19T22:54:13.816Z,22.33
2022-11-19T22:56:44.841Z,23.83
2022-11-19T22:59:14.471Z,22.30
2022-11-19T23:01:42.394Z,24.50
2022-11-19T23:04:14.563Z,25.20
2022-11-19T23:06:42.836Z,24.50
2022-11-19T23:09:11.028Z,23.50
2022-11-19T23:11:56.399Z,22.77
2022-11-19T23:14:26.274Z,24.33
2022-11-19T23:16:55.990Z,25.27
2022-11-19T23:19:24.214Z,24.83
2022-11-19T23:21:52.285Z,23.73
2022-11-19T23:24:22.658Z,23.93
2022-11-19T23:26:50.757Z,23.87
2022-11-19T23:29:19.255Z,23.80
2022-11-19T23:31:48.710Z,23.10
2022-11-19T23:34:16.868Z,23.07
2022-11-19T23:36:45.032Z,23.10
2022-11-19T23:39:17.031Z,23.03
2022-11-19T23:41:45.512Z,23.93
2022-11-19T23:44:13.892Z,24.93
2022-11-19T23:46:41.992Z,24.50
2022-11-19T23:49:12.430Z,23.43
2022-11-19T23:51:41.171Z,23.83
2022-11-19T23:54:09.165Z,23.00
2022-11-19T23:56:37.247Z,23.87
2022-11-19T23:59:06.361Z,23.97
